createdAt,value
2022-12-08T00:02:46.966Z,5.55
2022-12-08T00:08:31.135Z,5.55
2022-12-08T00:13:55.234Z,5.55
2022-12-08T00:19:18.808Z,5.53
2022-12-08T00:24:50.106Z,5.57
2022-12-08T00:30:13.409Z,5.58
2022-12-08T00:35:43.113Z,5.62
2022-12-08T00:41:10.873Z,5.62
2022-12-08T00:46:50.388Z,5.63
2022-12-08T00:52:20.575Z,5.65
2022-12-08T00:57:46.252Z,5.60
2022-12-08T01:03:14.220Z,5.61
2022-12-08T01:08:45.639Z,5.64
2022-12-08T01:14:15.203Z,5.60
2022-12-08T01:19:39.561Z,5.59
2022-12-08T01:25:02.680Z,5.64
2022-12-08T01:30:28.917Z,5.65
2022-12-08T01:35:54.601Z,5.64
2022-12-08T01:41:39.712Z,5.64
2022-12-08T01:47:09.721Z,5.52
2022-12-08T01:52:40.067Z,5.49
2022-12-08T01:58:11.172Z,5.46
2022-12-08T02:03:46.705Z,5.45
2022-12-08T02:09:11.680Z,5.45
2022-12-08T02:14:34.256Z,5.44
2022-12-08T02:20:32.866Z,5.48
2022-12-08T02:26:25.222Z,5.47
2022-12-08T02:32:04.002Z,5.51
2022-12-08T02:37:38.327Z,5.50
2022-12-08T02:43:05.427Z,5.53
2022-12-08T02:48:31.923Z,5.52
2022-12-08T02:54:00.182Z,5.54
2022-12-08T02:59:35.947Z,5.58
2022-12-08T03:05:08.911Z,5.54
2022-12-08T03:10:41.724Z,5.50
2022-12-08T03:16:19.591Z,5.48
2022-12-08T03:22:14.356Z,5.42
2022-12-08T03:27:43.712Z,5.45
2022-12-08T03:33:10.433Z,5.47
2022-12-08T03:38:42.261Z,5.46
2022-12-08T03:44:20.757Z,5.42
2022-12-08T03:49:44.773Z,5.31
2022-12-08T03:55:12.169Z,5.22
2022-12-08T04:00:39.296Z,5.13
2022-12-08T04:06:19.182Z,5.07
2022-12-08T04:11:52.426Z,5.04
2022-12-08T04:17:20.330Z,4.98
2022-12-08T04:22:54.717Z,4.86
2022-12-08T04:28:34.780Z,4.85
2022-12-08T04:34:03.582Z,4.84
2022-12-08T04:39:32.299Z,4.87
2022-12-08T04:44:56.484Z,4.89
2022-12-08T04:50:23.113Z,4.93
2022-12-08T04:55:49.320Z,4.95
2022-12-08T05:01:15.174Z,5.00
2022-12-08T05:06:43.495Z,5.04
2022-12-08T05:12:10.626Z,5.09
2022-12-08T05:17:35.969Z,5.14
2022-12-08T05:23:10.548Z,5.17
2022-12-08T05:28:41.751Z,5.18
2022-12-08T05:34:08.192Z,5.19
2022-12-08T05:40:32.613Z,5.25
2022-12-08T05:46:07.221Z,5.29
2022-12-08T05:51:34.221Z,5.32
2022-12-08T05:56:58.957Z,5.32
2022-12-08T06:02:24.049Z,5.36
2022-12-08T06:07:51.383Z,5.25
2022-12-08T06:13:29.192Z,5.15
2022-12-08T06:19:03.227Z,5.08
2022-12-08T06:24:26.435Z,4.99
2022-12-08T06:29:56.526Z,4.86
2022-12-08T06:35:25.341Z,4.75
2022-12-08T06:41:01.565Z,4.69
2022-12-08T06:46:25.978Z,4.63
2022-12-08T06:51:55.053Z,4.57
2022-12-08T06:57:20.219Z,4.49
2022-12-08T07:02:49.894Z,4.42
2022-12-08T07:08:15.433Z,4.46
2022-12-08T07:13:40.912Z,4.49
2022-12-08T07:19:05.711Z,4.52
2022-12-08T07:24:37.996Z,4.67
2022-12-08T07:30:01.760Z,4.75
2022-12-08T07:35:49.151Z,4.82
2022-12-08T07:41:23.521Z,4.86
2022-12-08T07:46:49.652Z,4.91
2022-12-08T07:52:25.035Z,4.99
2022-12-08T07:58:15.310Z,5.06
2022-12-08T08:03:39.512Z,5.15
2022-12-08T08:09:07.478Z,5.17
2022-12-08T08:14:33.324Z,5.23
2022-12-08T08:19:57.984Z,5.30
2022-12-08T08:25:27.295Z,5.40
2022-12-08T08:31:04.474Z,5.56
2022-12-08T08:36:27.598Z,5.69
2022-12-08T08:41:52.239Z,5.66
2022-12-08T08:47:24.153Z,5.76
2022-12-08T08:52:51.850Z,5.99
2022-12-08T08:58:19.457Z,6.15
2022-12-08T09:03:46.941Z,6.26
2022-12-08T09:09:13.681Z,6.23
2022-12-08T09:14:39.765Z,6.33
2022-12-08T09:20:07.680Z,6.41
2022-12-08T09:25:54.136Z,6.49
2022-12-08T09:31:18.517Z,6.58
2022-12-08T09:36:44.602Z,6.63
2022-12-08T09:42:14.434Z,6.60
2022-12-08T09:47:43.594Z,6.71
2022-12-08T09:53:15.293Z,6.72
2022-12-08T09:58:52.222Z,6.81
2022-12-08T10:04:28.796Z,6.87
2022-12-08T10:10:03.490Z,6.95
2022-12-08T10:15:47.028Z,6.99
2022-12-08T10:21:23.743Z,7.07
2022-12-08T10:27:00.926Z,6.98
2022-12-08T10:32:27.729Z,6.94
2022-12-08T10:38:03.246Z,6.95
2022-12-08T10:43:29.537Z,7.03
2022-12-08T10:48:56.010Z,7.17
2022-12-08T10:54:36.428Z,7.29
2022-12-08T11:00:01.770Z,7.41
2022-12-08T11:05:28.831Z,7.37
2022-12-08T11:10:54.206Z,7.41
2022-12-08T11:16:35.596Z,7.55
2022-12-08T11:22:01.805Z,7.82
2022-12-08T11:27:37.326Z,7.84
2022-12-08T11:33:10.645Z,7.90
2022-12-08T11:38:36.497Z,7.87
2022-12-08T11:44:04.381Z,7.75
2022-12-08T11:49:37.542Z,7.78
2022-12-08T11:55:06.303Z,7.87
2022-12-08T12:00:28.841Z,7.87
2022-12-08T12:06:24.228Z,7.80
2022-12-08T12:12:19.264Z,7.78
2022-12-08T12:17:47.240Z,7.74
2022-12-08T12:23:33.562Z,7.69
2022-12-08T12:29:06.998Z,7.60
2022-12-08T12:34:32.767Z,7.56
2022-12-08T12:40:12.822Z,7.52
2022-12-08T12:45:43.662Z,7.43
2022-12-08T12:51:45.647Z,7.37
2022-12-08T12:57:27.411Z,7.35
2022-12-08T13:02:55.733Z,7.28
2022-12-08T13:08:27.981Z,7.27
2022-12-08T13:14:03.912Z,7.27
2022-12-08T13:19:32.101Z,7.22
2022-12-08T13:25:24.481Z,7.20
2022-12-08T13:30:54.848Z,7.25
2022-12-08T13:36:28.334Z,7.26
2022-12-08T13:42:02.929Z,7.27
2022-12-08T13:47:49.571Z,7.27
2022-12-08T13:54:35.345Z,7.25
2022-12-08T13:59:34.421Z,7.22
2022-12-08T14:05:19.392Z,7.17
2022-12-08T14:10:45.263Z,7.12
2022-12-08T14:16:28.201Z,7.09
2022-12-08T14:22:05.534Z,7.02
2022-12-08T14:27:34.865Z,6.97
2022-12-08T14:33:03.981Z,6.90
2022-12-08T14:38:34.136Z,6.86
2022-12-08T14:44:07.483Z,6.93
2022-12-08T14:49:43.070Z,6.93
2022-12-08T14:55:14.883Z,6.93
2022-12-08T15:00:40.590Z,6.94
2022-12-08T15:06:10.304Z,6.94
2022-12-08T15:11:57.028Z,6.98
2022-12-08T15:17:40.000Z,6.99
2022-12-08T15:23:02.806Z,7.01
2022-12-08T15:28:30.589Z,7.02
2022-12-08T15:33:54.806Z,7.00
2022-12-08T15:39:28.675Z,6.95
2022-12-08T15:44:59.713Z,6.96
2022-12-08T15:50:26.249Z,6.97
2022-12-08T15:56:25.863Z,6.96
2022-12-08T16:01:42.034Z,6.91
2022-12-08T16:07:23.192Z,6.92
2022-12-08T16:19:06.117Z,6.86
2022-12-08T16:24:37.157Z,6.88
2022-12-08T16:30:03.545Z,6.47
2022-12-08T16:35:37.385Z,6.15
2022-12-08T16:41:19.337Z,5.83
2022-12-08T16:46:42.557Z,5.65
2022-12-08T16:52:12.800Z,5.57
2022-12-08T16:57:39.474Z,5.40
2022-12-08T17:03:08.611Z,5.27
2022-12-08T17:14:21.879Z,5.25
2022-12-08T17:19:52.003Z,5.14
2022-12-08T17:25:21.830Z,5.17
2022-12-08T17:30:46.749Z,5.11
2022-12-08T17:36:18.071Z,5.05
2022-12-08T17:41:43.857Z,4.97
2022-12-08T17:47:13.805Z,4.90
2022-12-08T17:52:43.954Z,4.87
2022-12-08T17:58:08.713Z,4.80
2022-12-08T18:03:35.440Z,4.73
2022-12-08T18:08:59.609Z,4.72
2022-12-08T18:14:24.552Z,4.70
2022-12-08T18:19:52.973Z,4.66
2022-12-08T18:25:19.982Z,4.69
2022-12-08T18:30:53.181Z,4.67
2022-12-08T18:36:24.880Z,4.66
2022-12-08T18:41:58.531Z,4.60
2022-12-08T18:47:25.485Z,4.57
2022-12-08T18:52:49.947Z,4.51
2022-12-08T18:58:16.889Z,4.51
2022-12-08T19:03:58.520Z,4.48
2022-12-08T19:09:44.049Z,4.46
2022-12-08T19:15:08.452Z,4.45
2022-12-08T19:20:38.726Z,4.44
2022-12-08T19:26:03.441Z,4.42
2022-12-08T19:31:27.578Z,4.40
2022-12-08T19:36:58.114Z,4.41
2022-12-08T19:42:43.595Z,4.40
2022-12-08T19:48:09.150Z,4.37
2022-12-08T19:53:43.012Z,4.35
2022-12-08T19:59:10.858Z,4.31
2022-12-08T20:04:36.970Z,4.26
2022-12-08T20:10:02.877Z,4.27
2022-12-08T20:15:32.200Z,4.29
2022-12-08T20:21:02.447Z,4.24
2022-12-08T20:26:33.134Z,4.28
2022-12-08T20:32:02.438Z,4.26
2022-12-08T20:37:29.997Z,4.23
2022-12-08T20:42:56.506Z,4.24
2022-12-08T20:48:29.181Z,4.27
2022-12-08T20:53:54.108Z,4.25
2022-12-08T20:59:24.755Z,4.23
2022-12-08T21:04:59.324Z,4.18
2022-12-08T21:10:29.741Z,4.17
2022-12-08T21:15:58.564Z,4.19
2022-12-08T21:21:24.762Z,4.14
2022-12-08T21:26:49.835Z,4.11
2022-12-08T21:32:31.017Z,4.08
2022-12-08T21:37:58.284Z,4.08
2022-12-08T21:43:21.714Z,4.09
2022-12-08T21:48:55.584Z,4.07
2022-12-08T21:54:21.576Z,4.07
2022-12-08T21:59:50.648Z,4.07
2022-12-08T22:05:17.105Z,4.07
2022-12-08T22:10:44.817Z,4.06
2022-12-08T22:16:09.576Z,4.02
2022-12-08T22:21:38.816Z,4.01
2022-12-08T22:27:02.266Z,4.02
2022-12-08T22:32:25.931Z,4.04
2022-12-08T22:37:54.837Z,4.06
2022-12-08T22:43:19.031Z,4.04
2022-12-08T22:48:46.212Z,4.06
2022-12-08T22:54:23.149Z,4.06
2022-12-08T22:59:52.843Z,4.07
2022-12-08T23:05:18.441Z,4.01
2022-12-08T23:10:43.055Z,3.99
2022-12-08T23:16:13.832Z,4.00
2022-12-08T23:21:38.251Z,4.03
2022-12-08T23:27:07.770Z,4.02
2022-12-08T23:32:34.241Z,4.03
2022-12-08T23:38:02.543Z,4.06
2022-12-08T23:43:30.757Z,4.06
2022-12-08T23:48:56.664Z,4.10
2022-12-08T23:54:22.754Z,4.11
2022-12-08T23:59:51.726Z,4.14
